createdAt,value
2019-01-19T00:01:17.430Z,-0.90
2019-01-19T00:04:07.113Z,-0.90
2019-01-19T00:06:39.309Z,-0.90
2019-01-19T00:09:11.548Z,-1.00
2019-01-19T00:11:46.848Z,-1.00
2019-01-19T00:14:19.560Z,-1.00
2019-01-19T00:17:04.524Z,-1.00
2019-01-19T00:19:54.636Z,-1.00
2019-01-19T00:22:33.031Z,-1.00
2019-01-19T00:25:23.305Z,-1.00
2019-01-19T00:27:58.058Z,-1.00
2019-01-19T00:30:42.779Z,-1.10
2019-01-19T00:33:21.209Z,-1.00
2019-01-19T00:36:03.176Z,-1.10
2019-01-19T00:39:08.737Z,-1.10
2019-01-19T00:41:46.654Z,-1.00
2019-01-19T00:44:38.609Z,-1.10
2019-01-19T00:47:25.926Z,-1.10
2019-01-19T00:49:58.179Z,-1.10
2019-01-19T00:52:34.925Z,-1.00
2019-01-19T00:55:22.070Z,-1.00
2019-01-19T00:58:10.018Z,-1.10
2019-01-19T01:01:13.672Z,-1.10
2019-01-19T01:04:05.547Z,-1.20
2019-01-19T01:06:46.481Z,-1.10
2019-01-19T01:09:31.464Z,-1.20
2019-01-19T01:12:20.951Z,-1.20
2019-01-19T01:15:02.929Z,-1.30
2019-01-19T01:17:35.623Z,-1.40
2019-01-19T01:20:20.361Z,-1.40
2019-01-19T01:23:02.069Z,-1.40
2019-01-19T01:25:40.196Z,-1.40
2019-01-19T01:28:29.217Z,-1.30
2019-01-19T01:31:10.733Z,-1.30
2019-01-19T01:33:58.447Z,-1.40
2019-01-19T01:36:46.566Z,-1.40
2019-01-19T01:39:21.817Z,-1.40
2019-01-19T01:42:00.171Z,-1.50
2019-01-19T01:44:50.765Z,-1.40
2019-01-19T01:47:36.005Z,-1.40
2019-01-19T01:50:24.138Z,-1.40
2019-01-19T01:53:08.911Z,-1.40
2019-01-19T01:55:39.261Z,-1.40
2019-01-19T01:58:11.433Z,-1.50
2019-01-19T02:00:50.832Z,-1.50
2019-01-19T02:03:43.065Z,-1.40
2019-01-19T02:06:37.447Z,-1.40
2019-01-19T02:09:29.712Z,-1.40
2019-01-19T02:12:27.986Z,-1.50
2019-01-19T02:15:17.348Z,-1.50
2019-01-19T02:18:08.229Z,-1.60
2019-01-19T02:20:49.643Z,-1.70
2019-01-19T02:23:29.441Z,-1.70
2019-01-19T02:26:18.185Z,-1.70
2019-01-19T02:29:16.315Z,-1.80
2019-01-19T02:31:48.765Z,-1.80
2019-01-19T02:34:36.414Z,-1.80
2019-01-19T02:37:25.554Z,-1.80
2019-01-19T02:40:01.429Z,-1.70
2019-01-19T02:42:42.993Z,-1.70
2019-01-19T02:45:30.364Z,-1.80
2019-01-19T02:48:20.940Z,-1.80
2019-01-19T02:50:58.933Z,-1.80
2019-01-19T02:53:43.603Z,-1.80
2019-01-19T02:56:19.245Z,-1.80
2019-01-19T02:59:12.546Z,-1.70
2019-01-19T03:01:51.678Z,-1.80
2019-01-19T03:04:24.422Z,-1.90
2019-01-19T03:07:06.092Z,-1.90
2019-01-19T03:10:02.549Z,-2.00
2019-01-19T03:12:41.331Z,-2.00
2019-01-19T03:15:38.489Z,-1.90
2019-01-19T03:18:13.364Z,-1.90
2019-01-19T03:20:54.992Z,-2.00
2019-01-19T03:23:48.922Z,-2.00
2019-01-19T03:26:27.514Z,-2.00
2019-01-19T03:29:33.344Z,-2.00
2019-01-19T03:32:17.410Z,-1.90
2019-01-19T03:34:50.705Z,-1.90
2019-01-19T03:37:37.698Z,-1.90
2019-01-19T03:40:38.098Z,-1.90
2019-01-19T03:43:22.708Z,-1.80
2019-01-19T03:46:20.101Z,-1.80
2019-01-19T03:49:01.476Z,-1.80
2019-01-19T03:51:39.654Z,-1.80
2019-01-19T03:54:27.053Z,-1.90
2019-01-19T03:57:08.172Z,-1.90
2019-01-19T03:59:58.088Z,-1.90
2019-01-19T04:02:42.892Z,-1.90
2019-01-19T04:05:24.300Z,-1.90
2019-01-19T04:08:02.388Z,-2.00
2019-01-19T04:10:37.857Z,-2.00
2019-01-19T04:13:18.876Z,-1.90
2019-01-19T04:16:16.238Z,-2.00
2019-01-19T04:18:57.499Z,-2.10
2019-01-19T04:21:48.463Z,-2.10
2019-01-19T04:24:23.557Z,-2.20
2019-01-19T04:26:53.329Z,-2.20
2019-01-19T04:29:23.158Z,-2.20
2019-01-19T04:31:53.217Z,-2.20
2019-01-19T04:34:22.773Z,-2.20
2019-01-19T04:36:53.042Z,-2.20
2019-01-19T04:39:23.122Z,-2.30
2019-01-19T04:41:53.322Z,-2.30
2019-01-19T04:44:22.961Z,-2.30
2019-01-19T04:46:53.000Z,-2.30
2019-01-19T04:49:22.965Z,-2.30
2019-01-19T04:51:52.578Z,-2.30
2019-01-19T04:54:22.311Z,-2.40
2019-01-19T04:56:52.010Z,-2.40
2019-01-19T04:59:21.712Z,-2.30
2019-01-19T05:01:51.460Z,-2.30
2019-01-19T05:04:20.927Z,-2.30
2019-01-19T05:06:50.382Z,-2.40
2019-01-19T05:09:20.790Z,-2.40
2019-01-19T05:11:50.468Z,-2.40
2019-01-19T05:14:20.094Z,-2.40
2019-01-19T05:16:49.630Z,-2.40
2019-01-19T05:19:19.181Z,-2.40
2019-01-19T05:21:49.058Z,-2.40
2019-01-19T05:24:18.749Z,-2.30
2019-01-19T05:26:48.321Z,-2.40
2019-01-19T05:29:18.930Z,-2.40
2019-01-19T05:31:48.814Z,-2.40
2019-01-19T05:34:18.636Z,-2.40
2019-01-19T05:36:48.366Z,-2.40
2019-01-19T05:39:18.228Z,-2.40
2019-01-19T05:41:47.794Z,-2.30
2019-01-19T05:44:17.263Z,-2.30
2019-01-19T05:46:47.006Z,-2.30
2019-01-19T05:49:16.724Z,-2.30
2019-01-19T05:51:46.089Z,-2.30
2019-01-19T05:54:15.777Z,-2.40
2019-01-19T05:56:45.461Z,-2.40
2019-01-19T05:59:14.839Z,-2.40
2019-01-19T06:01:45.025Z,-2.40
2019-01-19T06:04:14.843Z,-2.40
2019-01-19T06:06:47.077Z,-2.40
2019-01-19T06:09:16.177Z,-2.40
2019-01-19T06:11:45.516Z,-2.50
2019-01-19T06:14:15.409Z,-2.50
2019-01-19T06:16:45.471Z,-2.50
2019-01-19T06:19:15.225Z,-2.50
2019-01-19T06:21:46.741Z,-2.60
2019-01-19T06:24:16.404Z,-2.60
2019-01-19T06:26:46.009Z,-2.60
2019-01-19T06:29:15.974Z,-2.60
2019-01-19T06:31:46.946Z,-2.50
2019-01-19T06:34:16.473Z,-2.40
2019-01-19T06:36:46.169Z,-2.40
2019-01-19T06:39:15.994Z,-2.50
2019-01-19T06:41:45.719Z,-2.50
2019-01-19T06:44:15.510Z,-2.60
2019-01-19T06:46:45.697Z,-2.70
2019-01-19T06:49:16.517Z,-2.70
2019-01-19T06:51:46.070Z,-2.70
2019-01-19T06:54:16.041Z,-2.70
2019-01-19T06:56:45.542Z,-2.70
2019-01-19T06:59:17.482Z,-2.60
2019-01-19T07:01:46.512Z,-2.60
2019-01-19T07:04:16.067Z,-2.60
2019-01-19T07:06:45.861Z,-2.70
2019-01-19T07:09:15.577Z,-2.70
2019-01-19T07:11:45.584Z,-2.70
2019-01-19T07:14:15.845Z,-2.70
2019-01-19T07:16:45.753Z,-2.80
2019-01-19T07:19:15.209Z,-2.80
2019-01-19T07:21:45.435Z,-2.80
2019-01-19T07:24:15.093Z,-2.80
2019-01-19T07:26:45.149Z,-2.80
2019-01-19T07:29:14.757Z,-2.70
2019-01-19T07:31:44.345Z,-2.70
2019-01-19T07:34:14.817Z,-2.70
2019-01-19T07:36:44.507Z,-2.70
2019-01-19T07:39:14.041Z,-2.70
2019-01-19T07:41:43.874Z,-2.70
2019-01-19T07:44:13.556Z,-2.70
2019-01-19T07:46:43.341Z,-2.60
2019-01-19T07:49:13.042Z,-2.60
2019-01-19T07:51:42.705Z,-2.50
2019-01-19T07:54:12.337Z,-2.50
2019-01-19T07:56:42.713Z,-2.40
2019-01-19T07:59:12.404Z,-2.40
2019-01-19T08:01:42.233Z,-2.30
2019-01-19T08:04:11.708Z,-2.30
2019-01-19T08:06:41.209Z,-2.20
2019-01-19T08:09:12.810Z,-2.20
2019-01-19T08:11:49.831Z,-2.10
2019-01-19T08:14:19.405Z,-2.00
2019-01-19T08:16:48.793Z,-1.90
2019-01-19T08:19:18.456Z,-1.80
2019-01-19T08:21:48.265Z,-1.70
2019-01-19T08:24:18.316Z,-1.60
2019-01-19T08:26:47.901Z,-1.60
2019-01-19T08:29:18.416Z,-1.40
2019-01-19T08:31:48.241Z,-1.40
2019-01-19T08:34:18.405Z,-1.30
2019-01-19T08:36:49.272Z,-1.20
2019-01-19T08:39:19.562Z,-1.10
2019-01-19T08:41:49.325Z,-1.10
2019-01-19T08:44:18.933Z,-1.00
2019-01-19T08:46:48.414Z,-0.90
2019-01-19T08:49:18.158Z,-0.80
2019-01-19T08:51:47.889Z,-0.80
2019-01-19T08:54:17.864Z,-0.70
2019-01-19T08:56:47.700Z,-0.60
2019-01-19T08:59:17.065Z,-0.50
2019-01-19T09:01:46.686Z,-0.40
2019-01-19T09:04:16.205Z,-0.30
2019-01-19T09:06:46.009Z,-0.30
2019-01-19T09:09:15.849Z,-0.20
2019-01-19T09:11:45.877Z,-0.10
2019-01-19T09:14:19.131Z,0.00
2019-01-19T09:16:52.144Z,0.10
2019-01-19T09:19:23.476Z,0.10
2019-01-19T09:21:53.765Z,0.10
2019-01-19T09:24:24.242Z,0.20
2019-01-19T09:26:54.714Z,0.30
2019-01-19T09:29:25.581Z,0.40
2019-01-19T09:31:55.083Z,0.50
2019-01-19T09:34:24.588Z,0.60
2019-01-19T09:36:54.061Z,0.60
2019-01-19T09:39:25.127Z,0.70
2019-01-19T09:41:55.033Z,0.70
2019-01-19T09:44:24.489Z,0.70
2019-01-19T09:46:54.193Z,0.70
2019-01-19T09:49:24.093Z,0.70
2019-01-19T09:51:53.846Z,0.80
2019-01-19T09:54:24.925Z,0.80
2019-01-19T09:56:54.435Z,0.70
2019-01-19T09:59:23.885Z,0.80
2019-01-19T10:01:53.760Z,0.90
2019-01-19T10:04:23.420Z,0.90
2019-01-19T10:06:52.886Z,1.00
2019-01-19T10:09:22.924Z,1.00
2019-01-19T10:11:52.432Z,1.10
2019-01-19T10:14:21.884Z,1.20
2019-01-19T10:16:51.994Z,1.20
2019-01-19T10:19:21.628Z,1.30
2019-01-19T10:21:51.129Z,1.30
2019-01-19T10:24:20.905Z,1.40
2019-01-19T10:26:50.388Z,1.40
2019-01-19T10:29:20.335Z,1.40
2019-01-19T10:31:50.079Z,1.50
2019-01-19T10:34:19.475Z,1.50
2019-01-19T10:36:48.813Z,1.60
2019-01-19T10:39:18.379Z,1.60
2019-01-19T10:41:49.104Z,1.60
2019-01-19T10:44:18.439Z,1.60
2019-01-19T10:46:48.780Z,1.70
2019-01-19T10:49:18.626Z,1.70
2019-01-19T10:51:48.100Z,1.70
2019-01-19T10:54:17.856Z,1.80
2019-01-19T10:56:47.337Z,1.80
2019-01-19T10:59:16.789Z,1.90
2019-01-19T11:01:46.938Z,2.00
2019-01-19T11:04:16.577Z,2.20
2019-01-19T11:06:46.333Z,2.20
2019-01-19T11:09:15.769Z,2.30
2019-01-19T11:11:45.245Z,2.40
2019-01-19T11:14:14.697Z,2.40
2019-01-19T11:16:44.158Z,2.40
2019-01-19T11:19:13.642Z,2.40
2019-01-19T11:21:43.089Z,2.50
2019-01-19T11:24:12.559Z,2.60
2019-01-19T11:26:42.186Z,2.70
2019-01-19T11:29:11.541Z,2.80
2019-01-19T11:31:40.889Z,2.90
2019-01-19T11:34:10.564Z,2.90
2019-01-19T11:36:40.525Z,3.00
2019-01-19T11:39:09.972Z,3.20
2019-01-19T11:41:39.476Z,3.20
2019-01-19T11:44:10.379Z,3.20
2019-01-19T11:46:39.830Z,3.30
2019-01-19T11:49:09.697Z,3.30
2019-01-19T11:51:39.366Z,3.40
2019-01-19T11:54:09.305Z,3.40
2019-01-19T11:56:38.799Z,3.40
2019-01-19T11:59:08.528Z,3.50
2019-01-19T12:01:37.983Z,3.60
2019-01-19T12:04:07.380Z,3.70
2019-01-19T12:06:37.093Z,3.70
2019-01-19T12:09:07.733Z,3.70
2019-01-19T12:11:37.214Z,3.70
2019-01-19T12:14:07.144Z,3.70
2019-01-19T12:16:36.774Z,3.70
2019-01-19T12:19:06.149Z,3.80
2019-01-19T12:21:35.601Z,3.80
2019-01-19T12:24:05.735Z,3.90
2019-01-19T12:26:35.443Z,3.90
2019-01-19T12:29:04.809Z,3.80
2019-01-19T12:31:34.253Z,3.60
2019-01-19T12:34:03.726Z,3.40
2019-01-19T12:36:33.165Z,3.40
2019-01-19T12:39:02.729Z,3.50
2019-01-19T12:41:32.429Z,3.70
2019-01-19T12:44:01.893Z,3.50
2019-01-19T12:46:32.191Z,3.50
2019-01-19T12:49:01.832Z,3.50
2019-01-19T12:51:31.170Z,3.40
2019-01-19T12:54:00.520Z,3.50
2019-01-19T12:56:30.160Z,3.50
2019-01-19T12:58:59.630Z,3.60
2019-01-19T13:01:29.302Z,3.80
2019-01-19T13:03:59.049Z,4.00
2019-01-19T13:06:31.412Z,4.10
2019-01-19T13:09:00.940Z,4.20
2019-01-19T13:11:45.045Z,4.40
2019-01-19T13:14:14.497Z,4.40
2019-01-19T13:17:19.677Z,4.50
2019-01-19T13:19:57.806Z,4.80
2019-01-19T13:22:39.227Z,4.90
2019-01-19T13:25:27.424Z,5.10
2019-01-19T13:28:19.043Z,5.40
2019-01-19T13:31:06.895Z,5.50
2019-01-19T13:33:41.978Z,5.40
2019-01-19T13:36:22.881Z,5.40
2019-01-19T13:38:55.122Z,5.40
2019-01-19T13:41:33.635Z,5.80
2019-01-19T13:44:14.665Z,6.20
2019-01-19T13:47:02.100Z,6.10
2019-01-19T13:49:49.335Z,6.10
2019-01-19T13:52:23.018Z,6.10
2019-01-19T13:55:22.849Z,6.20
2019-01-19T13:58:04.232Z,6.40
2019-01-19T14:03:54.084Z,6.50
2019-01-19T14:06:40.561Z,6.50
2019-01-19T14:09:20.105Z,6.30
2019-01-19T14:12:09.747Z,6.40
2019-01-19T14:14:44.464Z,6.30
2019-01-19T14:17:44.621Z,6.40
2019-01-19T14:20:49.785Z,6.60
2019-01-19T14:23:33.556Z,6.90
2019-01-19T14:26:35.489Z,6.70
2019-01-19T14:29:20.054Z,7.00
2019-01-19T14:32:01.584Z,7.10
2019-01-19T14:34:33.797Z,7.00
2019-01-19T14:37:17.629Z,7.10
2019-01-19T14:40:04.898Z,7.20
2019-01-19T14:42:53.461Z,7.20
2019-01-19T14:45:30.069Z,7.40
2019-01-19T14:48:09.138Z,7.30
2019-01-19T14:51:02.761Z,7.50
2019-01-19T14:53:56.831Z,7.40
2019-01-19T14:56:49.877Z,7.20
2019-01-19T14:59:25.027Z,7.20
2019-01-19T15:02:14.889Z,6.90
2019-01-19T15:04:49.926Z,6.70
2019-01-19T15:07:31.201Z,6.30
2019-01-19T15:10:23.873Z,6.00
2019-01-19T15:13:01.858Z,5.80
2019-01-19T15:15:56.370Z,5.50
2019-01-19T15:18:47.904Z,5.10
2019-01-19T15:21:32.493Z,4.70
2019-01-19T15:24:16.616Z,4.20
2019-01-19T15:27:06.797Z,3.80
2019-01-19T15:29:47.849Z,3.40
2019-01-19T15:32:37.892Z,3.10
2019-01-19T15:35:10.103Z,2.90
2019-01-19T15:37:45.424Z,2.70
2019-01-19T15:40:24.251Z,2.50
2019-01-19T15:43:14.053Z,2.30
2019-01-19T15:45:46.298Z,2.10
2019-01-19T15:48:33.548Z,2.00
2019-01-19T15:51:06.593Z,1.90
2019-01-19T15:53:42.865Z,1.80
2019-01-19T15:56:44.419Z,1.70
2019-01-19T15:59:28.450Z,1.60
2019-01-19T16:02:16.018Z,1.50
2019-01-19T16:04:48.538Z,1.40
2019-01-19T16:07:50.902Z,1.30
2019-01-19T16:10:39.565Z,1.20
2019-01-19T16:13:32.661Z,1.00
2019-01-19T16:16:12.045Z,0.90
2019-01-19T16:18:47.261Z,0.90
2019-01-19T16:21:53.954Z,0.80
2019-01-19T16:24:47.684Z,0.70
2019-01-19T16:27:28.885Z,0.70
2019-01-19T16:30:10.285Z,0.70
2019-01-19T16:33:03.898Z,0.60
2019-01-19T16:35:58.163Z,0.50
2019-01-19T16:38:48.769Z,0.50
2019-01-19T16:41:30.261Z,0.40
2019-01-19T16:44:20.747Z,0.40
2019-01-19T16:47:02.469Z,0.30
2019-01-19T16:49:56.126Z,0.30
2019-01-19T16:52:34.830Z,0.20
2019-01-19T16:55:23.773Z,0.20
2019-01-19T16:58:04.886Z,0.20
2019-01-19T17:00:56.528Z,0.10
2019-01-19T17:03:47.323Z,0.10
2019-01-19T17:06:40.486Z,0.10
2019-01-19T17:09:25.237Z,0.10
2019-01-19T17:11:57.429Z,0.10
2019-01-19T17:14:56.681Z,0.00
2019-01-19T17:17:47.046Z,0.00
2019-01-19T17:20:19.752Z,-0.10
2019-01-19T17:22:54.859Z,-0.10
2019-01-19T17:25:46.885Z,-0.10
2019-01-19T17:28:36.195Z,-0.10
2019-01-19T17:31:11.635Z,-0.10
2019-01-19T17:34:03.672Z,-0.10
2019-01-19T17:36:38.973Z,-0.20
2019-01-19T17:39:20.570Z,-0.10
2019-01-19T17:42:16.960Z,-0.20
2019-01-19T17:44:52.693Z,-0.20
2019-01-19T17:47:24.820Z,-0.20
2019-01-19T17:50:00.184Z,-0.30
2019-01-19T17:52:35.337Z,-0.30
2019-01-19T17:55:22.329Z,-0.30
2019-01-19T17:58:13.069Z,-0.40
2019-01-19T18:01:22.721Z,-0.40
2019-01-19T18:04:13.688Z,-0.50
2019-01-19T18:06:49.078Z,-0.50
2019-01-19T18:09:27.236Z,-0.50
2019-01-19T18:12:08.309Z,-0.50
2019-01-19T18:15:10.702Z,-0.50
2019-01-19T18:17:43.044Z,-0.50
2019-01-19T18:20:31.361Z,-0.50
2019-01-19T18:23:16.068Z,-0.50
2019-01-19T18:26:03.577Z,-0.50
2019-01-19T18:28:58.800Z,-0.50
2019-01-19T18:31:52.639Z,-0.50
2019-01-19T18:34:31.563Z,-0.50
2019-01-19T18:37:10.057Z,-0.50
2019-01-19T18:39:46.051Z,-0.50
2019-01-19T18:42:39.095Z,-0.50
2019-01-19T18:45:20.464Z,-0.50
2019-01-19T18:48:02.711Z,-0.50
2019-01-19T18:50:51.654Z,-0.60
2019-01-19T18:53:36.682Z,-0.60
2019-01-19T18:56:44.137Z,-0.60
2019-01-19T18:59:41.229Z,-0.70
2019-01-19T19:02:16.654Z,-0.70
2019-01-19T19:05:12.697Z,-0.80
2019-01-19T19:08:01.904Z,-0.70
2019-01-19T19:10:51.096Z,-0.80
2019-01-19T19:13:35.806Z,-0.70
2019-01-19T19:16:31.324Z,-0.70
2019-01-19T19:19:21.490Z,-0.70
2019-01-19T19:21:59.516Z,-0.80
2019-01-19T19:24:37.711Z,-0.80
2019-01-19T19:27:18.930Z,-0.80
2019-01-19T19:30:00.688Z,-0.80
2019-01-19T19:32:39.699Z,-0.80
2019-01-19T19:35:18.191Z,-0.80
2019-01-19T19:38:10.419Z,-0.80
2019-01-19T19:41:05.730Z,-0.80
2019-01-19T19:43:40.884Z,-0.80
2019-01-19T19:46:15.771Z,-0.90
2019-01-19T19:48:56.954Z,-0.90
2019-01-19T19:51:32.790Z,-0.90
2019-01-19T19:54:02.310Z,-1.00
2019-01-19T19:56:30.245Z,-1.00
2019-01-19T19:58:59.617Z,-1.10
2019-01-19T20:01:30.381Z,-1.10
2019-01-19T20:04:00.637Z,-0.90
2019-01-19T20:06:33.025Z,-1.00
2019-01-19T20:09:02.414Z,-1.00
2019-01-19T20:11:32.346Z,-1.10
2019-01-19T20:14:02.257Z,-1.10
2019-01-19T20:16:31.993Z,-1.20
2019-01-19T20:19:02.093Z,-1.30
2019-01-19T20:21:32.067Z,-1.30
2019-01-19T20:24:02.275Z,-1.30
2019-01-19T20:26:31.942Z,-1.40
2019-01-19T20:29:01.440Z,-1.40
2019-01-19T20:31:31.233Z,-1.40
2019-01-19T20:34:01.507Z,-1.40
2019-01-19T20:36:31.184Z,-1.40
2019-01-19T20:39:01.232Z,-1.50
2019-01-19T20:41:30.909Z,-1.50
2019-01-19T20:44:00.717Z,-1.50
2019-01-19T20:46:30.549Z,-1.50
2019-01-19T20:49:00.314Z,-1.50
2019-01-19T20:51:29.675Z,-1.60
2019-01-19T20:53:59.285Z,-1.60
2019-01-19T20:56:30.623Z,-1.60
2019-01-19T20:59:00.621Z,-1.60
2019-01-19T21:01:30.647Z,-1.60
2019-01-19T21:04:01.338Z,-1.60
2019-01-19T21:06:31.170Z,-1.70
2019-01-19T21:09:01.246Z,-1.70
2019-01-19T21:11:30.989Z,-1.70
2019-01-19T21:14:01.323Z,-1.70
2019-01-19T21:16:30.809Z,-1.70
2019-01-19T21:19:00.676Z,-1.70
2019-01-19T21:21:30.121Z,-1.70
2019-01-19T21:23:59.990Z,-1.70
2019-01-19T21:26:29.344Z,-1.70
2019-01-19T21:28:59.359Z,-1.60
2019-01-19T21:31:29.197Z,-1.60
2019-01-19T21:33:59.814Z,-1.70
2019-01-19T21:36:29.411Z,-1.70
2019-01-19T21:38:59.072Z,-1.70
2019-01-19T21:41:28.540Z,-1.70
2019-01-19T21:43:58.568Z,-1.70
2019-01-19T21:46:27.982Z,-1.70
2019-01-19T21:48:57.838Z,-1.70
2019-01-19T21:51:27.719Z,-1.70
2019-01-19T21:53:57.733Z,-1.80
2019-01-19T21:56:27.897Z,-1.80
2019-01-19T21:58:58.335Z,-1.80
2019-01-19T22:01:28.987Z,-1.80
2019-01-19T22:03:59.108Z,-1.80
2019-01-19T22:06:29.309Z,-1.90
2019-01-19T22:08:58.826Z,-1.90
2019-01-19T22:11:29.265Z,-1.90
2019-01-19T22:13:59.516Z,-1.90
2019-01-19T22:16:30.336Z,-1.90
2019-01-19T22:18:59.504Z,-2.00
2019-01-19T22:21:30.854Z,-2.00
2019-01-19T22:24:00.874Z,-2.00
2019-01-19T22:26:31.174Z,-2.00
2019-01-19T22:29:01.212Z,-2.10
2019-01-19T22:31:31.883Z,-2.10
2019-01-19T22:34:01.545Z,-2.00
2019-01-19T22:36:32.793Z,-2.00
2019-01-19T22:39:02.244Z,-2.00
2019-01-19T22:41:32.411Z,-2.00
2019-01-19T22:44:05.857Z,-2.00
2019-01-19T22:46:36.561Z,-2.00
2019-01-19T22:49:08.474Z,-2.00
2019-01-19T22:51:39.024Z,-2.00
2019-01-19T22:54:12.172Z,-2.00
2019-01-19T22:56:42.143Z,-2.00
2019-01-19T22:59:12.449Z,-2.00
2019-01-19T23:01:42.818Z,-1.90
2019-01-19T23:04:15.794Z,-1.90
2019-01-19T23:06:48.324Z,-1.90
2019-01-19T23:09:18.531Z,-1.90
2019-01-19T23:11:49.089Z,-1.90
2019-01-19T23:14:24.634Z,-1.90
2019-01-19T23:16:53.990Z,-1.90
2019-01-19T23:19:27.092Z,-1.80
2019-01-19T23:21:57.789Z,-1.80
2019-01-19T23:24:33.523Z,-1.90
2019-01-19T23:27:04.501Z,-1.90
2019-01-19T23:29:33.725Z,-1.90
2019-01-19T23:32:03.230Z,-1.90
2019-01-19T23:34:32.277Z,-2.00
2019-01-19T23:37:01.330Z,-2.00
2019-01-19T23:39:30.764Z,-2.10
2019-01-19T23:41:59.796Z,-2.20
2019-01-19T23:44:29.082Z,-2.20
2019-01-19T23:46:59.197Z,-2.30
2019-01-19T23:49:29.068Z,-2.30
2019-01-19T23:51:58.524Z,-2.30
2019-01-19T23:54:28.162Z,-2.40
2019-01-19T23:56:57.897Z,-2.50
2019-01-19T23:59:27.472Z,-2.50
